Time;durP1;ratioP1;P1;durP2;ratioP2;P2;SDS_P1;SDS_P2;PMS_P1;PMS_P2;Temp;Humidity;BMP_temperature;BMP_pressure;BME280_temperature;BME280_humidity;BME280_pressure;Samples;Min_cycle;Max_cycle;Signal;HPM_P1;HPM_P2
2022/12/25 00:01:22;;;;;;;99.25;36.63;;;5.20;99.90;;;;;;5023469;28;20075;-74
2022/12/25 00:03:48;;;;;;;102.25;38.38;;;5.20;99.90;;;;;;5022993;28;20098;-74
2022/12/25 00:06:14;;;;;;;104.75;38.42;;;5.20;99.90;;;;;;5022216;28;20426;-74
2022/12/25 00:08:40;;;;;;;104.88;40.10;;;5.30;99.90;;;;;;5023574;28;20041;-74
2022/12/25 00:11:12;;;;;;;108.75;38.65;;;5.30;99.90;;;;;;5023504;28;20592;-75
2022/12/25 00:13:38;;;;;;;90.80;37.67;;;5.30;99.90;;;;;;5022431;28;20037;-74
2022/12/25 00:16:23;;;;;;;113.40;38.28;;;5.30;99.90;;;;;;5023504;28;20302;-75
2022/12/25 00:18:52;;;;;;;106.35;39.22;;;5.30;99.90;;;;;;5022927;28;20052;-74
2022/12/25 00:21:20;;;;;;;113.47;36.28;;;5.30;99.90;;;;;;5020941;28;20053;-74
2022/12/25 00:23:46;;;;;;;93.22;37.38;;;5.30;99.90;;;;;;5021957;28;20052;-74
2022/12/25 00:26:15;;;;;;;111.50;35.97;;;5.40;99.90;;;;;;5022331;28;20080;-74
2022/12/25 00:28:42;;;;;;;100.38;33.90;;;5.40;99.90;;;;;;5022016;28;20045;-74
2022/12/25 00:31:10;;;;;;;77.15;33.30;;;5.50;99.90;;;;;;5025156;28;20052;-75
2022/12/25 00:33:37;;;;;;;110.15;38.08;;;5.50;99.90;;;;;;5024717;28;20053;-75
2022/12/25 00:36:05;;;;;;;92.95;35.95;;;5.50;99.90;;;;;;5028051;28;20081;-74
2022/12/25 00:38:32;;;;;;;105.93;38.72;;;5.60;99.90;;;;;;5024854;28;20049;-75
2022/12/25 00:40:57;;;;;;;104.57;36.13;;;5.60;99.90;;;;;;5026422;28;20118;-74
2022/12/25 00:43:23;;;;;;;129.25;36.28;;;5.70;99.90;;;;;;5028554;28;20628;-75
2022/12/25 00:45:58;;;;;;;100.57;35.65;;;5.70;99.90;;;;;;5026895;28;20144;-74
2022/12/25 00:48:24;;;;;;;98.47;34.72;;;5.70;99.90;;;;;;5025288;28;20099;-74
2022/12/25 00:50:58;;;;;;;88.15;34.40;;;5.70;99.90;;;;;;5028133;28;20049;-74
2022/12/25 00:53:25;;;;;;;110.63;38.28;;;5.80;99.90;;;;;;5025874;28;20092;-74
2022/12/25 00:55:57;;;;;;;113.15;37.65;;;5.80;99.90;;;;;;5024320;28;20060;-75
2022/12/25 00:58:23;;;;;;;110.22;40.67;;;5.80;99.90;;;;;;5026666;28;20410;-75
2022/12/25 01:00:49;;;;;;;114.18;37.05;;;5.90;99.90;;;;;;5025303;28;20800;-75
2022/12/25 01:03:17;;;;;;;94.20;36.03;;;5.80;99.90;;;;;;5027229;28;20157;-74
2022/12/25 01:05:52;;;;;;;111.28;38.53;;;5.80;99.90;;;;;;5042746;28;20549;-74
2022/12/25 01:08:18;;;;;;;93.63;35.72;;;5.80;99.90;;;;;;5025076;28;20469;-74
2022/12/25 01:10:44;;;;;;;103.88;35.17;;;5.90;99.90;;;;;;5026317;28;20069;-74
2022/12/25 01:13:09;;;;;;;97.18;34.05;;;5.90;99.90;;;;;;5024667;28;20042;-74
2022/12/25 01:15:36;;;;;;;100.18;36.28;;;5.90;99.90;;;;;;5027234;28;20148;-74
2022/12/25 01:18:01;;;;;;;94.05;36.15;;;5.90;99.90;;;;;;5026214;28;20053;-75
2022/12/25 01:20:27;;;;;;;99.15;35.03;;;5.90;99.90;;;;;;5024429;28;20089;-75
2022/12/25 01:22:53;;;;;;;87.38;34.33;;;5.90;99.90;;;;;;5023643;28;20196;-75
2022/12/25 01:25:19;;;;;;;93.57;35.67;;;5.90;99.90;;;;;;5023321;28;20461;-74
2022/12/25 01:27:45;;;;;;;105.60;35.45;;;5.90;99.90;;;;;;5024028;28;20462;-74
2022/12/25 01:30:11;;;;;;;98.15;37.85;;;5.90;99.90;;;;;;5025536;28;20048;-73
2022/12/25 01:32:37;;;;;;;88.35;33.65;;;5.90;99.90;;;;;;5024516;28;20144;-74
2022/12/25 01:35:03;;;;;;;91.78;35.65;;;5.80;99.90;;;;;;5027160;28;20566;-74
2022/12/25 01:37:28;;;;;;;95.03;33.50;;;5.90;99.90;;;;;;5026158;28;20041;-75
2022/12/25 01:39:54;;;;;;;79.70;32.90;;;5.80;99.90;;;;;;5024509;28;20396;-75
2022/12/25 01:42:22;;;;;;;94.70;35.92;;;5.90;99.90;;;;;;5026465;28;20107;-75
2022/12/25 01:44:48;;;;;;;91.72;36.05;;;5.90;99.90;;;;;;5020343;28;20045;-75
2022/12/25 01:47:15;;;;;;;98.32;35.65;;;5.80;99.90;;;;;;5023462;28;20057;-75
2022/12/25 01:49:45;;;;;;;81.75;34.53;;;5.90;99.90;;;;;;5022620;28;20049;-75
2022/12/25 01:52:13;;;;;;;78.82;33.08;;;5.90;99.90;;;;;;5024894;28;20041;-75
2022/12/25 01:54:42;;;;;;;95.95;36.00;;;5.90;99.90;;;;;;5026596;28;20057;-75
2022/12/25 01:57:17;;;;;;;85.72;34.72;;;6.00;99.90;;;;;;5024941;28;20052;-74
2022/12/25 01:59:44;;;;;;;87.88;34.83;;;6.00;99.90;;;;;;5015670;28;20037;-75
2022/12/25 02:02:10;;;;;;;97.50;35.83;;;6.10;99.90;;;;;;5025534;28;20064;-75
2022/12/25 02:04:47;;;;;;;91.57;33.65;;;6.00;99.90;;;;;;5027295;28;20042;-75
2022/12/25 02:07:16;;;;;;;79.18;31.15;;;6.10;99.90;;;;;;5027275;28;20116;-75
2022/12/25 02:09:43;;;;;;;90.10;35.85;;;6.20;99.90;;;;;;5026366;28;20057;-75
2022/12/25 02:12:16;;;;;;;109.80;35.42;;;6.20;99.90;;;;;;5023272;28;20053;-75
2022/12/25 02:14:42;;;;;;;90.15;33.25;;;6.20;99.90;;;;;;5025968;28;20050;-74
2022/12/25 02:17:49;;;;;;;84.38;33.25;;;6.20;99.90;;;;;;5025111;28;20087;-74
2022/12/25 02:20:27;;;;;;;86.40;35.20;;;6.20;99.90;;;;;;5040286;28;20057;-75
2022/12/25 02:23:12;;;;;;;96.80;34.03;;;6.30;99.90;;;;;;5019778;28;20108;-75
2022/12/25 02:25:56;;;;;;;96.70;33.78;;;6.30;99.90;;;;;;5024750;28;20441;-75
2022/12/25 02:28:45;;;;;;;91.95;32.60;;;6.30;99.90;;;;;;5023300;28;20069;-75
2022/12/25 02:31:16;;;;;;;91.25;33.40;;;6.40;99.90;;;;;;5025202;28;20560;-75
2022/12/25 02:34:01;;;;;;;85.38;33.50;;;6.40;99.90;;;;;;5025047;28;20111;-75
2022/12/25 02:36:33;;;;;;;81.85;32.92;;;6.40;99.90;;;;;;5018458;28;20052;-75
2022/12/25 02:41:48;;;;;;;90.15;33.40;;;6.40;99.90;;;;;;5022202;28;20504;-75
2022/12/25 03:07:12;;;;;;;68.90;29.08;;;6.60;99.90;;;;;;5021852;28;20049;-74
2022/12/25 03:12:50;;;;;;;82.43;31.48;;;6.70;99.90;;;;;;5018094;28;20147;-75
2022/12/25 03:18:05;;;;;;;96.93;31.90;;;6.70;99.90;;;;;;5023868;28;20049;-74
2022/12/25 03:28:52;;;;;;;105.03;32.63;;;6.90;99.90;;;;;;5023126;28;20053;-75
2022/12/25 03:31:32;;;;;;;71.22;30.88;;;6.90;99.90;;;;;;5027127;28;20399;-75
2022/12/25 04:37:59;;;;;;;92.20;35.33;;;7.20;99.90;;;;;;5022569;28;20063;-74
2022/12/25 04:40:24;;;;;;;106.88;38.35;;;7.20;99.90;;;;;;5023392;28;20426;-74
2022/12/25 04:42:51;;;;;;;88.13;38.40;;;7.20;99.90;;;;;;5024091;28;20049;-75
2022/12/25 04:45:17;;;;;;;92.38;38.60;;;7.30;99.90;;;;;;5025643;28;20041;-74
2022/12/25 04:47:43;;;;;;;87.63;35.95;;;7.40;99.90;;;;;;5016775;28;20091;-75
2022/12/25 04:50:08;;;;;;;100.10;37.95;;;7.40;99.90;;;;;;5022350;28;20041;-74
2022/12/25 04:52:36;;;;;;;102.43;40.63;;;7.40;99.90;;;;;;5026725;28;20109;-75
2022/12/25 04:55:02;;;;;;;102.03;39.40;;;7.40;99.90;;;;;;5024705;28;20057;-75
2022/12/25 04:57:28;;;;;;;95.90;39.35;;;7.40;99.90;;;;;;5024697;28;20049;-74
2022/12/25 04:59:54;;;;;;;97.88;37.17;;;7.50;99.90;;;;;;5022876;28;20505;-75
2022/12/25 05:02:19;;;;;;;106.25;40.55;;;7.50;99.90;;;;;;5024867;28;20048;-75
2022/12/25 05:04:46;;;;;;;101.47;43.33;;;7.50;99.90;;;;;;5023473;28;20049;-74
2022/12/25 05:07:11;;;;;;;102.90;41.30;;;7.50;99.90;;;;;;5024204;28;20045;-75
2022/12/25 05:09:40;;;;;;;102.22;42.60;;;7.50;99.90;;;;;;5023143;28;20092;-75
2022/12/25 05:12:09;;;;;;;114.03;42.65;;;7.50;99.90;;;;;;5019689;28;20494;-75
2022/12/25 05:14:35;;;;;;;109.30;42.08;;;7.60;99.90;;;;;;5023957;28;20092;-75
2022/12/25 05:17:01;;;;;;;96.28;41.55;;;7.60;99.90;;;;;;5029629;28;20045;-75
2022/12/25 05:19:28;;;;;;;121.70;43.63;;;7.60;99.90;;;;;;5026537;28;20096;-75
2022/12/25 05:21:54;;;;;;;101.80;44.38;;;7.60;99.90;;;;;;5023672;28;20060;-75
2022/12/25 05:24:24;;;;;;;109.03;42.25;;;7.60;99.90;;;;;;5026972;28;20053;-75
2022/12/25 05:26:50;;;;;;;109.35;43.67;;;7.60;99.90;;;;;;5025989;28;20092;-75
2022/12/25 05:29:16;;;;;;;106.10;40.92;;;7.70;99.90;;;;;;5024585;28;20053;-75
2022/12/25 05:31:41;;;;;;;117.60;41.88;;;7.70;99.90;;;;;;5026844;28;20041;-75
2022/12/25 05:34:07;;;;;;;119.03;43.47;;;7.70;99.90;;;;;;5025106;28;20525;-75
2022/12/25 05:36:33;;;;;;;111.15;43.70;;;7.70;99.90;;;;;;5024202;28;20037;-75
2022/12/25 05:38:58;;;;;;;129.77;44.08;;;7.70;99.90;;;;;;5026869;28;20445;-75
2022/12/25 05:41:24;;;;;;;114.28;43.53;;;7.80;99.90;;;;;;5024444;28;21288;-75
2022/12/25 05:43:51;;;;;;;115.65;43.35;;;7.80;99.90;;;;;;5024893;28;20050;-74
2022/12/25 05:46:17;;;;;;;123.53;46.08;;;7.80;99.90;;;;;;5026031;28;20053;-75
2022/12/25 05:48:43;;;;;;;112.28;42.08;;;7.80;99.90;;;;;;5027538;28;20037;-75
2022/12/25 05:51:11;;;;;;;103.88;40.60;;;7.80;99.90;;;;;;5025873;28;20595;-75
2022/12/25 05:53:38;;;;;;;106.13;41.85;;;7.90;99.90;;;;;;5009869;28;20062;-75
2022/12/25 05:56:05;;;;;;;107.97;44.33;;;7.90;99.90;;;;;;5026198;28;20049;-75
2022/12/25 05:58:32;;;;;;;107.80;44.03;;;7.90;99.90;;;;;;5026759;28;20063;-75
2022/12/25 06:00:58;;;;;;;102.15;42.92;;;8.00;99.90;;;;;;5028085;28;20081;-75
2022/12/25 06:03:25;;;;;;;109.13;42.13;;;8.00;99.90;;;;;;5024990;28;20175;-75
2022/12/25 06:05:51;;;;;;;101.78;42.30;;;8.00;99.90;;;;;;5036326;28;20135;-75
2022/12/25 06:08:17;;;;;;;123.32;43.08;;;8.00;99.90;;;;;;5025881;28;20055;-74
2022/12/25 06:10:43;;;;;;;114.00;44.15;;;8.00;99.90;;;;;;5028166;28;20172;-75
2022/12/25 06:13:08;;;;;;;96.30;42.17;;;8.00;99.90;;;;;;5022156;28;20132;-75
2022/12/25 06:15:38;;;;;;;116.03;44.78;;;8.00;99.90;;;;;;5026169;28;20034;-75
2022/12/25 06:18:04;;;;;;;118.97;40.80;;;8.00;99.90;;;;;;5028625;28;20046;-75
2022/12/25 06:20:30;;;;;;;92.88;39.85;;;8.10;99.90;;;;;;5019761;28;20065;-75
2022/12/25 06:22:55;;;;;;;97.05;43.47;;;8.10;99.90;;;;;;5028057;28;20215;-75
2022/12/25 06:25:21;;;;;;;110.32;43.20;;;8.10;99.90;;;;;;5025280;28;20127;-75
2022/12/25 06:27:47;;;;;;;92.28;40.22;;;8.10;99.90;;;;;;5025365;28;20056;-75
2022/12/25 06:30:13;;;;;;;90.78;39.95;;;8.10;99.90;;;;;;5026026;28;20056;-75
2022/12/25 06:32:38;;;;;;;102.45;41.50;;;8.10;99.90;;;;;;5024392;28;20049;-75
2022/12/25 06:35:04;;;;;;;103.55;42.72;;;8.10;99.90;;;;;;5017294;28;20053;-75
2022/12/25 06:37:30;;;;;;;96.18;42.40;;;8.10;99.90;;;;;;5023925;28;20160;-75
2022/12/25 06:39:56;;;;;;;94.93;42.42;;;8.10;99.90;;;;;;5023744;28;20077;-75
2022/12/25 06:42:23;;;;;;;95.22;40.75;;;8.20;99.90;;;;;;5024153;28;20129;-75
2022/12/25 06:44:49;;;;;;;92.53;42.95;;;8.20;99.90;;;;;;5024383;28;20116;-75
2022/12/25 06:47:15;;;;;;;107.13;42.22;;;8.20;99.90;;;;;;5024586;28;20046;-75
2022/12/25 06:49:43;;;;;;;110.75;41.90;;;8.20;99.90;;;;;;5026386;28;20821;-74
2022/12/25 06:52:09;;;;;;;99.78;43.95;;;8.20;99.90;;;;;;5027970;28;20049;-75
2022/12/25 06:54:35;;;;;;;105.65;44.22;;;8.20;99.90;;;;;;5024706;28;20394;-74
2022/12/25 06:57:00;;;;;;;103.03;41.45;;;8.20;99.90;;;;;;5026433;28;20045;-75
2022/12/25 06:59:26;;;;;;;112.32;40.85;;;8.20;99.90;;;;;;5025196;28;20053;-75
2022/12/25 07:01:54;;;;;;;84.90;38.78;;;8.20;99.90;;;;;;5021170;28;20056;-75
2022/12/25 07:04:26;;;;;;;93.25;39.30;;;8.20;99.90;;;;;;5020007;28;20502;-75
2022/12/25 07:06:52;;;;;;;93.55;36.92;;;8.20;99.90;;;;;;5025019;28;20168;-74
2022/12/25 07:09:17;;;;;;;75.65;38.53;;;8.30;99.90;;;;;;5023923;28;20081;-74
2022/12/25 07:11:43;;;;;;;74.95;35.85;;;8.30;99.90;;;;;;5027098;28;20127;-74
2022/12/25 07:14:21;;;;;;;78.25;36.33;;;8.30;99.90;;;;;;5024927;28;20360;-74
2022/12/25 07:16:47;;;;;;;88.25;38.58;;;8.30;99.90;;;;;;5025811;28;20056;-74
2022/12/25 07:19:13;;;;;;;86.53;36.78;;;8.30;99.90;;;;;;5024603;28;20045;-74
2022/12/25 07:21:39;;;;;;;77.93;39.22;;;8.30;99.90;;;;;;5024801;28;20839;-74
2022/12/25 07:24:05;;;;;;;83.97;39.58;;;8.30;99.90;;;;;;5019615;28;20112;-74
2022/12/25 07:26:30;;;;;;;73.15;37.10;;;8.30;99.90;;;;;;5025375;28;20133;-74
2022/12/25 07:28:56;;;;;;;90.55;39.35;;;8.30;99.90;;;;;;5020303;28;20454;-74
2022/12/25 07:31:21;;;;;;;76.13;36.70;;;8.30;99.90;;;;;;5026047;28;20449;-74
2022/12/25 07:33:47;;;;;;;81.38;38.53;;;8.30;99.90;;;;;;5023028;28;20495;-74
2022/12/25 07:36:14;;;;;;;85.38;37.42;;;8.30;99.90;;;;;;5025105;28;20053;-74
2022/12/25 07:38:41;;;;;;;67.05;32.60;;;8.30;99.90;;;;;;5017924;28;20112;-74
2022/12/25 07:41:10;;;;;;;75.68;38.13;;;8.20;99.90;;;;;;5015683;28;20053;-74
2022/12/25 07:43:36;;;;;;;78.65;34.83;;;8.20;99.90;;;;;;5016772;28;20049;-75
2022/12/25 07:46:03;;;;;;;68.40;34.42;;;8.20;99.90;;;;;;5012935;28;20045;-74
2022/12/25 07:48:29;;;;;;;71.78;30.83;;;8.10;99.90;;;;;;5014060;28;20073;-74
2022/12/25 07:50:56;;;;;;;62.78;30.80;;;8.20;99.90;;;;;;5018334;28;20129;-74
2022/12/25 07:53:22;;;;;;;56.90;31.13;;;8.20;99.90;;;;;;5020333;28;20530;-74
2022/12/25 07:55:47;;;;;;;60.17;28.85;;;8.20;99.90;;;;;;5018694;28;20067;-74
2022/12/25 07:58:13;;;;;;;58.83;26.67;;;8.10;99.90;;;;;;5021173;28;20459;-74
2022/12/25 08:00:38;;;;;;;59.63;27.38;;;8.10;99.90;;;;;;5024174;28;20030;-75
2022/12/25 08:03:05;;;;;;;52.28;26.95;;;8.20;99.90;;;;;;5022606;28;20045;-74
2022/12/25 08:05:31;;;;;;;45.50;24.25;;;8.20;99.90;;;;;;5017623;28;20107;-75
2022/12/25 08:07:58;;;;;;;55.45;27.10;;;8.20;99.90;;;;;;5018897;28;20430;-74
2022/12/25 08:10:24;;;;;;;57.42;23.38;;;8.20;99.90;;;;;;5033547;28;20171;-74
2022/12/25 08:12:50;;;;;;;48.10;24.27;;;8.20;99.90;;;;;;5016075;28;20048;-75
2022/12/25 08:15:16;;;;;;;45.45;24.45;;;8.20;99.90;;;;;;5017562;28;20060;-74
2022/12/25 08:17:42;;;;;;;55.38;25.73;;;8.20;99.90;;;;;;5020434;28;20399;-75
2022/12/25 08:20:08;;;;;;;44.50;22.77;;;8.20;99.90;;;;;;5017763;28;20397;-74
2022/12/25 08:22:33;;;;;;;40.55;21.02;;;8.20;99.90;;;;;;5019730;28;20073;-75
2022/12/25 08:24:59;;;;;;;46.15;23.02;;;8.20;99.90;;;;;;5020090;28;20246;-74
2022/12/25 08:27:24;;;;;;;55.22;24.50;;;8.20;99.90;;;;;;5018891;28;20509;-75
2022/12/25 08:29:50;;;;;;;40.47;21.13;;;8.30;99.90;;;;;;5019669;28;20132;-75
2022/12/25 08:32:17;;;;;;;46.28;21.77;;;8.20;99.90;;;;;;5018221;28;20077;-74
2022/12/25 08:34:42;;;;;;;37.67;21.38;;;8.20;99.90;;;;;;5018160;28;22007;-76
2022/12/25 08:37:08;;;;;;;39.05;20.98;;;8.30;99.90;;;;;;5020309;28;20121;-75
2022/12/25 08:39:33;;;;;;;46.10;19.77;;;8.30;99.90;;;;;;5019226;28;20041;-75
2022/12/25 08:41:59;;;;;;;41.03;23.10;;;8.20;99.90;;;;;;5023836;28;20045;-75
2022/12/25 08:44:25;;;;;;;40.78;20.30;;;8.30;99.90;;;;;;5022677;28;20057;-75
2022/12/25 08:46:50;;;;;;;44.70;21.02;;;8.20;99.90;;;;;;5023269;28;20529;-75
2022/12/25 08:49:16;;;;;;;39.53;20.88;;;8.30;99.90;;;;;;5025087;28;20076;-75
2022/12/25 08:51:43;;;;;;;38.53;21.17;;;8.30;99.90;;;;;;5029937;28;20087;-75
2022/12/25 08:54:09;;;;;;;41.00;19.75;;;8.30;99.90;;;;;;5026524;28;20038;-75
2022/12/25 08:56:35;;;;;;;39.47;18.15;;;8.30;99.90;;;;;;5024214;28;20125;-75
2022/12/25 08:59:01;;;;;;;42.30;20.35;;;8.30;99.90;;;;;;5026191;28;20054;-75
2022/12/25 09:01:27;;;;;;;40.70;19.20;;;8.30;99.90;;;;;;5027361;28;20560;-75
2022/12/25 09:03:53;;;;;;;32.17;18.05;;;8.30;99.90;;;;;;5025550;28;20556;-75
2022/12/25 09:06:18;;;;;;;38.70;18.67;;;8.30;99.90;;;;;;5025475;28;20034;-75
2022/12/25 09:08:44;;;;;;;43.78;19.85;;;8.30;99.90;;;;;;5026190;28;20072;-75
2022/12/25 09:11:15;;;;;;;37.47;19.95;;;8.30;99.90;;;;;;5026251;28;20517;-75
2022/12/25 09:13:41;;;;;;;36.70;19.52;;;8.30;99.90;;;;;;5027876;28;20053;-75
2022/12/25 09:16:09;;;;;;;35.65;17.75;;;8.30;99.90;;;;;;5026533;28;20469;-75
2022/12/25 09:18:35;;;;;;;48.63;18.33;;;8.30;99.90;;;;;;5026967;28;20053;-75
2022/12/25 09:21:03;;;;;;;34.80;18.45;;;8.30;99.90;;;;;;5025540;28;20481;-75
2022/12/25 09:23:29;;;;;;;36.05;17.10;;;8.40;99.90;;;;;;5027111;28;20099;-75
2022/12/25 09:26:01;;;;;;;29.52;15.77;;;8.40;99.90;;;;;;5027667;28;20038;-75
2022/12/25 09:28:27;;;;;;;34.60;17.58;;;8.40;99.90;;;;;;5026524;28;20037;-75
2022/12/25 09:30:53;;;;;;;36.08;17.75;;;8.40;99.90;;;;;;5024258;28;20060;-75
2022/12/25 09:33:20;;;;;;;36.78;17.95;;;8.40;99.90;;;;;;5025702;28;20052;-75
2022/12/25 09:35:57;;;;;;;32.55;18.33;;;8.40;99.90;;;;;;5019740;28;20065;-75
2022/12/25 09:38:23;;;;;;;46.03;18.30;;;8.40;99.90;;;;;;5023774;28;20054;-75
2022/12/25 09:41:02;;;;;;;32.78;17.33;;;8.40;99.90;;;;;;5023376;28;20038;-75
2022/12/25 09:43:32;;;;;;;32.17;16.23;;;8.40;99.90;;;;;;5023525;28;20046;-76
2022/12/25 09:45:59;;;;;;;26.45;17.05;;;8.40;99.90;;;;;;5023193;28;20093;-75
2022/12/25 09:48:29;;;;;;;27.08;16.70;;;8.50;99.90;;;;;;5022197;28;20041;-75
2022/12/25 09:51:13;;;;;;;34.10;18.38;;;8.50;99.90;;;;;;5023464;28;20041;-75
2022/12/25 09:53:45;;;;;;;30.55;16.50;;;8.50;99.90;;;;;;5021701;28;20730;-75
2022/12/25 09:56:37;;;;;;;33.17;18.27;;;8.50;99.90;;;;;;5021268;28;20053;-75
2022/12/25 09:59:07;;;;;;;33.58;18.00;;;8.50;99.90;;;;;;5018902;28;20061;-75
2022/12/25 10:01:51;;;;;;;34.08;19.42;;;8.50;99.90;;;;;;5019850;28;20053;-75
2022/12/25 10:04:48;;;;;;;34.03;18.42;;;8.60;99.90;;;;;;5023869;28;20410;-76
2022/12/25 10:07:44;;;;;;;35.47;19.77;;;8.60;99.90;;;;;;5020858;28;20060;-76
2022/12/25 10:10:24;;;;;;;36.63;19.17;;;8.70;99.90;;;;;;5019227;28;20542;-76
2022/12/25 10:13:02;;;;;;;35.53;18.20;;;8.60;99.90;;;;;;5020647;28;20057;-77
2022/12/25 10:15:32;;;;;;;38.72;18.70;;;8.60;99.90;;;;;;5019933;28;20084;-76
2022/12/25 10:18:22;;;;;;;27.48;17.08;;;8.70;99.90;;;;;;5022030;28;20202;-76
2022/12/25 10:20:54;;;;;;;57.42;19.88;;;8.70;99.90;;;;;;5030427;28;21736;-77
2022/12/25 10:23:39;;;;;;;39.95;19.00;;;8.70;99.90;;;;;;5021163;28;20061;-77
2022/12/25 10:26:14;;;;;;;34.17;18.83;;;8.70;99.90;;;;;;5016248;28;20061;-77
2022/12/25 10:29:04;;;;;;;32.70;17.65;;;8.70;99.90;;;;;;5021339;28;20045;-77
2022/12/25 10:31:34;;;;;;;30.35;17.33;;;8.70;99.90;;;;;;5019841;28;20778;-77
2022/12/25 10:34:02;;;;;;;33.00;17.33;;;8.70;99.90;;;;;;5022235;28;20053;-77
2022/12/25 10:36:29;;;;;;;32.88;17.00;;;8.70;99.90;;;;;;5022052;28;20044;-77
2022/12/25 10:38:55;;;;;;;29.42;17.17;;;8.80;99.90;;;;;;5024701;28;20044;-77
2022/12/25 10:41:54;;;;;;;33.97;17.23;;;8.80;99.90;;;;;;5021443;28;20054;-76
2022/12/25 10:44:24;;;;;;;38.92;18.20;;;8.80;99.90;;;;;;5020684;28;20045;-77
2022/12/25 10:46:55;;;;;;;32.53;18.42;;;8.80;99.90;;;;;;5022128;28;20049;-76
2022/12/25 10:49:23;;;;;;;37.10;20.52;;;8.80;99.90;;;;;;5022063;28;20061;-76
2022/12/25 10:51:49;;;;;;;34.95;20.73;;;8.80;99.90;;;;;;5019693;28;20053;-76
2022/12/25 10:54:34;;;;;;;44.45;23.83;;;8.90;99.90;;;;;;5021913;28;20060;-77
2022/12/25 10:57:03;;;;;;;39.35;21.88;;;8.90;99.90;;;;;;5017615;28;20331;-77
2022/12/25 10:59:29;;;;;;;;;;;8.90;99.90;;;;;;5022315;28;20056;-77
2022/12/25 11:02:02;;;;;;;32.17;18.80;;;8.90;99.90;;;;;;5022113;28;20020;-77
2022/12/25 11:04:29;;;;;;;38.92;22.73;;;8.90;99.90;;;;;;5021560;28;20050;-76
2022/12/25 11:07:04;;;;;;;44.58;20.27;;;8.90;99.90;;;;;;5020534;28;20051;-76
2022/12/25 11:09:29;;;;;;;31.88;18.23;;;9.00;99.90;;;;;;5018516;28;20143;-77
2022/12/25 11:11:55;;;;;;;34.70;20.35;;;9.00;99.90;;;;;;5023388;28;20045;-77
2022/12/25 11:14:22;;;;;;;30.00;16.95;;;9.00;99.90;;;;;;5021786;28;20455;-76
2022/12/25 11:16:49;;;;;;;27.50;17.88;;;9.00;99.90;;;;;;5020922;28;20057;-77
2022/12/25 11:19:25;;;;;;;30.20;17.40;;;9.00;99.90;;;;;;5020386;28;20056;-76
2022/12/25 11:21:56;;;;;;;32.58;20.83;;;9.10;99.90;;;;;;5023713;28;20045;-76
2022/12/25 11:24:26;;;;;;;37.67;19.85;;;9.10;99.90;;;;;;5022149;28;20053;-76
2022/12/25 11:26:55;;;;;;;41.85;22.38;;;9.10;99.90;;;;;;5020243;28;20491;-76
2022/12/25 11:29:30;;;;;;;32.90;19.70;;;9.20;99.90;;;;;;5022288;28;20073;-76
2022/12/25 11:31:59;;;;;;;42.40;27.70;;;9.10;99.90;;;;;;5019680;28;20064;-76
2022/12/25 11:34:43;;;;;;;45.63;26.88;;;9.20;99.90;;;;;;5018332;28;20129;-76
2022/12/25 11:37:26;;;;;;;40.70;21.42;;;9.20;99.90;;;;;;5032953;28;20095;-76
2022/12/25 11:39:52;;;;;;;32.13;20.25;;;9.20;99.90;;;;;;5025303;28;20045;-76
2022/12/25 11:42:31;;;;;;;38.95;20.20;;;9.20;99.90;;;;;;5019256;28;20044;-76
2022/12/25 11:45:32;;;;;;;36.47;18.98;;;9.20;99.90;;;;;;5028098;28;20870;-76
2022/12/25 11:48:19;;;;;;;24.42;14.50;;;9.20;99.90;;;;;;4981336;28;20073;-76
2022/12/25 11:50:50;;;;;;;38.38;19.42;;;9.20;99.90;;;;;;5026955;28;20457;-76
2022/12/25 11:53:40;;;;;;;37.70;16.35;;;9.30;99.90;;;;;;5025274;28;20041;-76
2022/12/25 11:56:29;;;;;;;30.92;15.27;;;9.30;99.90;;;;;;5023037;28;20033;-76
2022/12/25 11:59:01;;;;;;;34.17;17.02;;;9.40;99.90;;;;;;5015136;28;20053;-76
2022/12/25 12:01:56;;;;;;;21.52;14.07;;;9.40;99.90;;;;;;5024917;28;20828;-76
2022/12/25 12:04:35;;;;;;;40.47;15.60;;;9.40;99.90;;;;;;5014565;28;20045;-76
2022/12/25 12:07:20;;;;;;;25.75;14.55;;;9.40;99.90;;;;;;5016015;28;20053;-76
2022/12/25 12:09:57;;;;;;;27.15;14.32;;;9.40;99.90;;;;;;5021465;28;20080;-76
2022/12/25 12:12:44;;;;;;;29.65;14.20;;;9.40;99.90;;;;;;5022088;28;20077;-76
2022/12/25 12:15:19;;;;;;;33.63;16.27;;;9.50;99.90;;;;;;5021492;28;20058;-76
2022/12/25 12:17:45;;;;;;;30.33;17.30;;;9.50;99.90;;;;;;5025440;28;20049;-76
2022/12/25 12:20:29;;;;;;;27.75;18.13;;;9.50;99.90;;;;;;5023474;28;20053;-76
2022/12/25 12:22:55;;;;;;;40.83;23.70;;;9.50;99.90;;;;;;5020219;28;20132;-76
2022/12/25 12:25:21;;;;;;;28.65;19.23;;;9.40;99.90;;;;;;5042185;28;20049;-75
2022/12/25 12:27:57;;;;;;;31.05;20.27;;;9.50;99.90;;;;;;5011323;28;20388;-76
2022/12/25 12:30:34;;;;;;;36.88;19.27;;;9.50;99.90;;;;;;5023653;28;20049;-76
2022/12/25 12:33:04;;;;;;;36.50;25.73;;;9.50;99.90;;;;;;5028877;28;20057;-76
2022/12/25 12:35:36;;;;;;;30.00;22.30;;;9.50;99.90;;;;;;5012594;28;20044;-76
2022/12/25 12:38:08;;;;;;;35.50;22.35;;;9.40;99.90;;;;;;5028390;28;20081;-76
2022/12/25 12:40:43;;;;;;;35.83;22.17;;;9.50;99.90;;;;;;5024700;28;20045;-75
2022/12/25 12:43:29;;;;;;;34.72;19.45;;;9.40;99.90;;;;;;5021109;28;20090;-76
2022/12/25 12:46:03;;;;;;;31.42;17.83;;;9.40;99.90;;;;;;5026662;28;20053;-75
2022/12/25 12:48:36;;;;;;;41.75;23.40;;;9.40;99.90;;;;;;5029125;28;20495;-75
2022/12/25 12:51:13;;;;;;;37.38;21.23;;;9.40;99.90;;;;;;5020715;28;20049;-76
2022/12/25 12:53:41;;;;;;;35.30;20.73;;;9.40;99.90;;;;;;5028168;28;20046;-76
2022/12/25 12:56:16;;;;;;;55.22;37.03;;;9.30;99.90;;;;;;5037025;28;20061;-76
2022/12/25 12:58:48;;;;;;;30.63;22.20;;;9.30;99.90;;;;;;5025957;28;20124;-76
2022/12/25 13:01:26;;;;;;;35.70;19.63;;;9.30;99.90;;;;;;5023364;28;20060;-76
2022/12/25 13:04:12;;;;;;;40.53;25.33;;;9.30;99.90;;;;;;5023650;28;20136;-76
2022/12/25 13:06:46;;;;;;;37.45;24.52;;;9.30;99.90;;;;;;5022548;28;20060;-78
2022/12/25 13:09:52;;;;;;;41.72;21.05;;;9.30;99.90;;;;;;5024166;28;20124;-76
2022/12/25 13:12:19;;;;;;;32.75;21.95;;;9.30;99.90;;;;;;4976396;28;20057;-77
2022/12/25 13:14:46;;;;;;;37.95;23.35;;;9.30;99.90;;;;;;5021872;28;20042;-77
2022/12/25 13:17:23;;;;;;;36.30;21.60;;;9.20;99.90;;;;;;5019026;28;20057;-77
2022/12/25 13:19:59;;;;;;;39.33;22.10;;;9.20;99.90;;;;;;5023010;28;20049;-77
2022/12/25 13:22:34;;;;;;;31.10;21.20;;;9.30;99.90;;;;;;5021716;28;20060;-77
2022/12/25 13:25:03;;;;;;;33.17;20.23;;;9.20;99.90;;;;;;5024723;28;20924;-77
2022/12/25 13:27:31;;;;;;;34.45;20.27;;;9.20;99.90;;;;;;5024552;28;20084;-77
2022/12/25 13:29:57;;;;;;;34.90;20.42;;;9.20;99.90;;;;;;5024306;28;20065;-76
2022/12/25 13:32:27;;;;;;;37.38;19.73;;;9.20;99.90;;;;;;5031402;28;20611;-77
2022/12/25 13:34:53;;;;;;;36.30;19.50;;;9.20;99.90;;;;;;5023606;28;20053;-76
2022/12/25 13:37:23;;;;;;;29.40;18.92;;;9.20;99.90;;;;;;5022604;28;20043;-76
2022/12/25 13:40:14;;;;;;;32.80;20.30;;;9.10;99.90;;;;;;5022967;28;20414;-75
2022/12/25 13:42:47;;;;;;;41.65;21.10;;;9.10;99.90;;;;;;4986174;28;20049;-76
2022/12/25 13:45:12;;;;;;;33.60;19.60;;;9.10;99.90;;;;;;5019962;28;20076;-76
2022/12/25 13:47:44;;;;;;;33.85;18.42;;;9.10;99.90;;;;;;5022351;28;20829;-76
2022/12/25 13:50:19;;;;;;;29.30;19.02;;;9.00;99.90;;;;;;5024319;28;20799;-75
2022/12/25 13:52:44;;;;;;;31.70;19.10;;;9.00;99.90;;;;;;5018974;28;20137;-75
2022/12/25 13:55:10;;;;;;;29.65;19.63;;;9.00;99.90;;;;;;5022645;28;20778;-75
2022/12/25 13:57:40;;;;;;;33.78;21.05;;;9.00;99.90;;;;;;5024747;28;20040;-75
2022/12/25 14:00:19;;;;;;;36.28;20.92;;;9.00;99.90;;;;;;5021615;28;20103;-76
2022/12/25 14:02:45;;;;;;;43.70;22.33;;;9.00;99.90;;;;;;5022938;28;20056;-76
2022/12/25 14:05:28;;;;;;;35.03;19.58;;;8.90;99.90;;;;;;5021837;28;20045;-76
2022/12/25 14:07:57;;;;;;;37.10;19.95;;;8.90;99.90;;;;;;5034348;28;20128;-76
2022/12/25 14:10:26;;;;;;;38.35;21.52;;;8.90;99.90;;;;;;5021528;28;20050;-76
2022/12/25 14:12:54;;;;;;;46.30;25.38;;;8.90;99.90;;;;;;5023901;28;20159;-76
2022/12/25 14:15:22;;;;;;;37.42;23.90;;;8.90;99.90;;;;;;5020628;28;20063;-76
2022/12/25 14:17:50;;;;;;;34.40;22.50;;;8.90;99.90;;;;;;5022008;28;20049;-76
2022/12/25 14:20:28;;;;;;;42.42;25.95;;;8.90;99.90;;;;;;5018303;28;20049;-76
2022/12/25 14:22:59;;;;;;;46.53;29.23;;;8.90;99.90;;;;;;5022578;28;20053;-76
2022/12/25 14:25:32;;;;;;;43.65;28.50;;;8.90;99.90;;;;;;5025272;28;20037;-76
2022/12/25 14:27:59;;;;;;;53.20;33.53;;;8.80;99.90;;;;;;5020716;28;20050;-76
2022/12/25 14:30:27;;;;;;;49.77;33.03;;;8.80;99.90;;;;;;5024200;28;20072;-76
2022/12/25 14:32:55;;;;;;;52.10;35.67;;;8.80;99.90;;;;;;5021535;28;20450;-75
2022/12/25 14:35:24;;;;;;;42.45;28.40;;;8.80;99.90;;;;;;5021284;28;20041;-75